Lander, WY

5:33 AM MDT on April 01, 2015 (GMT -0600)
Riverton Regional | | Change Station
CLOSE
Current Station
Airport
Location: Riverton,
Elevation: 5525 ft
Nearby Weather Stations
Active Advisory: Special Statement Active Notice: Record Report

Elev 5525 ft 43.06 °N, 108.46 °W | Updated 40 minutes ago

Clear
Clear
47 °F
Feels Like 47 °F
N
18
Wind Variable Wind from NW

Today
High -- | Low -- °F
--% Chance of Precip.
Yesterday
High -- | Low -- °F
Precip. -- in
6:57 AM 7:40 PM
Waxing Gibbous, 92% visible
Pressure 29.57 in
Visibility 10.0 miles
Clouds Clear
Dew Point 26 °F
Humidity 44%
Rainfall 0.00 in
Snow Depth Not available.
UV 0 out of 12
Pollen 8.60 out of 12
Air Quality Not available.
Flu Activity Not available.
METAR KRIW 011053Z AUTO 32016KT 10SM CLR 08/M03 A2971 RMK AO2 SLP011 T00831033

More Conditions Fewer Conditions

Pressure 29.57 in
Visibility 10.0 miles
Clouds Clear
Dew Point 26 °F
Humidity 44%
Rainfall 0.00 in
Snow Depth Not available.
UV 0 out of 12
Pollen 8.60 out of 12
Air Quality Not available.
Flu Activity Not available.
METAR KRIW 011053Z AUTO 32016KT 10SM CLR 08/M03 A2971 RMK AO2 SLP011 T00831033

More Conditions Fewer Conditions

10-Day Weather Forecast

Almanac

Astronomy

Apr. 01, 2015 Rise Set
Actual Time
Civil Twilight
Nautical Twilight
Astronomical Twilight
Moon
Length of Visible Light
Length of Day
Tomorrow will be .
, % of the Moon is Illuminated

Today's Extremes

State Highs State Lows

Community

WunderPhotos

Upload Photos

1,809,935 photos uploaded!

WunderBlogs® & News

Nearby

Air Quality

  Air Quality AQ Index Pollutant
Not available.

Snow Depth

Station Depth Elevation

Earthquake Activity

City Distance Mag. Time & Date
Minimum magnitude displayed is 2.5.

Coastal Water Temperatures

Place Temperature

Stations

Nearby Weather Stations

Station Location Temp. Windchill Dew Point Humidity Wind Precip. Elev Updated Type
                   
Special Statement
Statement as of 3:02 AM MDT on April 01, 2015

... Gusty winds and low humidity to cause elevated fire danger...

Erratic winds with occasional gusts to 30 mph with relative
humidity of 15 percent to 20 percent can be expected this
afternoon and evening across the Wind River basin. These conditions
will make agricultural burning difficult. Delay agricultural burning
until a day with lighter winds and higher relative humidity.


Jb/ka